Bad Kissingen, Germany

7:41 AM CEST on July 04, 2015 (GMT +0200)
Bad Kissingen | | Change Station
CLOSE
Current Station
Personal Weather Station
Location: Bad Kissingen, BAYERN
Elevation: 810 ft
Nearby Weather Stations

Elev 810 ft 50.21 °N, 10.10 °E | Updated 12 seconds ago

Partly Cloudy
Partly Cloudy
75.9 °F
Feels Like 78 °F
N
0.0
Wind Variable Wind from SSW
Gusts 0.0 mph

Today
High -- | Low -- °F
--% Chance of Precip.
Yesterday
High -- | Low -- °F
Precip. -- in
5:15 AM 9:32 PM
Waning Gibbous, 94% visible
Pressure 30.21 in
Visibility 6.2 miles
Clouds Few 28000 ft
Heat Index 78 °F
Dew Point 62 °F
Humidity 62%
Rainfall 0.00 in
Snow Depth Not available.
UV 1.0 out of 12
Pollen Not available.
Air Quality Not available.
Flu Activity Not available.
METAR ETHN 040520Z 14007KT 9999 FEW280 24/17 Q1023 BLU+

More Conditions Fewer Conditions

Pressure 30.21 in
Visibility 6.2 miles
Clouds Few 28000 ft
Heat Index 78 °F
Dew Point 62 °F
Humidity 62%
Rainfall 0.00 in
Snow Depth Not available.
UV 1.0 out of 12
Pollen Not available.
Air Quality Not available.
Flu Activity Not available.
METAR ETHN 040520Z 14007KT 9999 FEW280 24/17 Q1023 BLU+

More Conditions Fewer Conditions

10-Day Weather Forecast

×

Almanac

Astronomy

Jul. 04, 2015 Rise Set
Actual Time
Civil Twilight
Nautical Twilight
Astronomical Twilight
Moon
Length of Visible Light
Length of Day
Tomorrow will be .
, % of the Moon is Illuminated

Today's Extremes

Country Highs Country Lows

Community

WunderPhotos

Upload Photos

1,834,923 photos uploaded!

WunderBlogs® & News

Nearby

Air Quality

  Air Quality AQ Index Pollutant
Not available.

Snow Depth

Station Depth Elevation

Earthquake Activity

City Distance Mag. Time & Date
Minimum magnitude displayed is 2.5.

Coastal Water Temperatures

Place Temperature

Stations

Nearby Weather Stations

Station Location Temp. Windchill Dew Point Humidity Wind Precip. Elev Updated Type